Time;durP1;ratioP1;P1;durP2;ratioP2;P2;SDS_P1;SDS_P2;PMS_P1;PMS_P2;Temp;Humidity;BMP_temperature;BMP_pressure;BME280_temperature;BME280_humidity;BME280_pressure;Samples;Min_cycle;Max_cycle;Signal;HPM_P1;HPM_P2
2022/12/05 00:01:54;;;;;;;29.02;13.63;;;;;;;3.04;100.00;99016.72;5099695;28;20040;-82
2022/12/05 00:04:39;;;;;;;22.10;13.20;;;;;;;3.00;100.00;99025.50;5097232;28;20035;-83
2022/12/05 00:07:24;;;;;;;22.83;14.23;;;;;;;3.06;100.00;99026.16;5085473;28;20032;-82
2022/12/05 00:10:09;;;;;;;22.40;14.50;;;;;;;3.05;100.00;99036.56;5088889;28;20494;-82
2022/12/05 00:12:54;;;;;;;21.35;13.25;;;;;;;3.02;100.00;99016.78;5089525;28;20055;-82
2022/12/05 00:15:39;;;;;;;22.52;14.05;;;;;;;3.02;100.00;99015.97;5100578;28;20044;-81
2022/12/05 00:18:24;;;;;;;22.08;14.65;;;;;;;3.01;100.00;99012.53;5090389;28;20092;-83
2022/12/05 00:21:20;;;;;;;22.75;14.40;;;;;;;2.98;100.00;99017.81;5092782;28;20471;-82
2022/12/05 00:24:07;;;;;;;22.63;14.23;;;;;;;3.07;100.00;99014.91;5103091;28;20039;-83
2022/12/05 00:26:51;;;;;;;22.90;14.65;;;;;;;3.14;100.00;99025.03;5092430;28;20042;-81
2022/12/05 00:29:36;;;;;;;23.65;14.98;;;;;;;3.05;100.00;99019.28;5089877;28;20043;-81
2022/12/05 00:32:20;;;;;;;25.38;16.02;;;;;;;3.00;100.00;99033.28;5065861;28;20052;-81
2022/12/05 00:35:05;;;;;;;25.58;15.70;;;;;;;2.98;100.00;99027.31;5081533;28;20062;-82
2022/12/05 00:37:50;;;;;;;24.85;16.17;;;;;;;2.91;100.00;99019.75;5083914;28;20042;-83
2022/12/05 00:40:35;;;;;;;26.23;16.95;;;;;;;2.89;100.00;99016.34;5071130;28;20487;-82
2022/12/05 00:43:20;;;;;;;28.48;17.48;;;;;;;2.91;100.00;99013.72;5086782;28;20046;-84
2022/12/05 00:46:09;;;;;;;28.67;17.70;;;;;;;2.93;100.00;99014.50;5066934;28;20032;-83
2022/12/05 00:48:55;;;;;;;27.92;17.95;;;;;;;2.89;100.00;99020.69;5082490;28;20056;-81
2022/12/05 00:51:43;;;;;;;28.35;17.20;;;;;;;2.94;100.00;99029.13;5067447;28;20033;-82
2022/12/05 00:54:27;;;;;;;29.73;17.48;;;;;;;2.98;100.00;99030.75;5082895;28;20475;-83
2022/12/05 00:57:12;;;;;;;29.98;18.80;;;;;;;2.97;100.00;99013.50;5068277;28;20046;-83
2022/12/05 00:59:56;;;;;;;30.67;18.73;;;;;;;3.03;100.00;99018.50;5080830;28;20044;-82
2022/12/05 01:02:41;;;;;;;28.27;17.02;;;;;;;3.02;100.00;99029.72;5084864;28;20055;-82
2022/12/05 01:05:25;;;;;;;27.42;17.58;;;;;;;3.05;100.00;99039.97;5080353;28;21229;-82
2022/12/05 01:08:10;;;;;;;28.83;17.10;;;;;;;3.07;100.00;99040.78;5085319;28;20036;-82
2022/12/05 01:10:55;;;;;;;27.13;16.95;;;;;;;3.08;100.00;99036.47;5067592;28;20041;-82
2022/12/05 01:13:41;;;;;;;23.48;16.30;;;;;;;3.08;100.00;99039.88;5083453;28;20118;-83
2022/12/05 01:16:28;;;;;;;26.67;15.85;;;;;;;3.17;100.00;99030.97;5079984;28;20039;-83
2022/12/05 01:19:17;;;;;;;25.48;15.95;;;;;;;3.12;100.00;99029.44;5067644;28;20683;-83
2022/12/05 01:22:01;;;;;;;25.70;16.48;;;;;;;3.08;100.00;99039.88;5083552;28;20031;-84
2022/12/05 01:24:46;;;;;;;25.75;15.93;;;;;;;3.11;100.00;99040.69;5072977;28;20036;-84
2022/12/05 01:27:30;;;;;;;25.25;15.82;;;;;;;3.14;100.00;99020.72;5088436;28;20036;-82
2022/12/05 01:30:15;;;;;;;24.67;15.07;;;;;;;3.07;100.00;99037.34;5084394;28;20416;-81
2022/12/05 01:32:59;;;;;;;26.80;15.75;;;;;;;3.14;100.00;99048.34;5106435;28;20044;-81
2022/12/05 01:35:44;;;;;;;24.13;15.20;;;;;;;3.10;100.00;99041.59;5102745;28;20044;-83
2022/12/05 01:38:28;;;;;;;22.25;13.77;;;;;;;3.07;100.00;99040.78;5096368;28;20078;-82
2022/12/05 01:41:22;;;;;;;22.65;14.00;;;;;;;3.03;100.00;99046.97;5106126;28;20398;-83
2022/12/05 01:44:26;;;;;;;23.40;14.25;;;;;;;3.01;100.00;99055.66;5101082;28;20051;-82
2022/12/05 01:47:16;;;;;;;22.58;13.77;;;;;;;2.96;100.00;99053.25;5096186;28;20043;-83
2022/12/05 01:50:01;;;;;;;18.58;12.68;;;;;;;2.91;100.00;99032.69;5103217;28;20085;-80
2022/12/05 01:52:46;;;;;;;20.58;12.75;;;;;;;2.88;100.00;99045.72;5089447;28;20046;-83
2022/12/05 01:55:33;;;;;;;22.50;12.93;;;;;;;2.87;100.00;99044.03;5100993;28;20039;-79
2022/12/05 01:58:18;;;;;;;21.13;12.43;;;;;;;2.79;100.00;99030.50;5113189;28;20146;-81
2022/12/05 02:01:03;;;;;;;22.77;12.82;;;;;;;2.79;100.00;99025.34;5082197;28;20055;-81
2022/12/05 02:03:51;;;;;;;21.05;13.35;;;;;;;2.74;100.00;99024.63;5108888;28;20083;-82
2022/12/05 02:06:36;;;;;;;21.55;13.65;;;;;;;2.78;100.00;99008.09;5097247;28;20032;-82
2022/12/05 02:09:22;;;;;;;19.67;12.32;;;;;;;2.81;100.00;98997.63;5085568;28;20044;-83
2022/12/05 02:12:06;;;;;;;21.73;13.40;;;;;;;2.87;100.00;98984.53;5094517;28;20039;-83
2022/12/05 02:15:04;;;;;;;24.10;12.68;;;;;;;2.87;100.00;98989.69;5094734;28;20032;-82
2022/12/05 02:18:09;;;;;;;21.95;13.35;;;;;;;2.86;100.00;98981.97;5082332;28;20036;-85
2022/12/05 02:21:00;;;;;;;21.40;13.40;;;;;;;2.81;100.00;98990.72;5094166;28;20115;-83
2022/12/05 02:24:09;;;;;;;22.00;14.00;;;;;;;2.75;100.00;99003.00;5100364;28;20059;-83
2022/12/05 02:27:36;;;;;;;20.45;12.82;;;;;;;2.66;100.00;98999.81;5086239;28;20048;-82
2022/12/05 02:30:22;;;;;;;21.88;13.20;;;;;;;2.78;100.00;99002.91;5088080;28;20055;-86
2022/12/05 02:33:28;;;;;;;20.50;14.27;;;;;;;2.77;100.00;99006.41;5081894;28;20040;-84
2022/12/05 02:36:19;;;;;;;19.67;13.52;;;;;;;2.80;100.00;99006.31;5068989;28;20055;-83
2022/12/05 02:39:13;;;;;;;22.98;14.60;;;;;;;2.88;100.00;99014.66;5085824;28;20044;-84
2022/12/05 02:42:08;;;;;;;19.52;13.75;;;;;;;2.74;100.00;99022.03;5068413;28;20118;-84
2022/12/05 02:44:59;;;;;;;17.55;12.70;;;;;;;2.87;100.00;99009.53;5085973;28;20032;-82
2022/12/05 02:47:48;;;;;;;21.05;13.07;;;;;;;2.72;100.00;99001.38;5079269;28;20036;-82
2022/12/05 02:50:38;;;;;;;19.25;13.32;;;;;;;2.87;100.00;99009.53;5084500;28;20411;-83
2022/12/05 02:53:25;;;;;;;21.25;13.18;;;;;;;2.82;100.00;99018.28;5080317;28;20044;-83
2022/12/05 02:56:11;;;;;;;20.17;13.27;;;;;;;2.87;100.00;99014.72;5069471;28;20044;-83
2022/12/05 02:58:56;;;;;;;20.20;11.70;;;;;;;2.88;100.00;99019.00;5082618;28;20038;-83
2022/12/05 03:01:45;;;;;;;19.95;13.00;;;;;;;2.78;100.00;99021.03;5067775;28;20048;-83
2022/12/05 03:04:30;;;;;;;19.73;12.90;;;;;;;2.77;100.00;99024.53;5066187;28;20093;-84
2022/12/05 03:07:16;;;;;;;20.08;12.00;;;;;;;2.74;100.00;99027.22;5067955;28;20373;-83
2022/12/05 03:10:06;;;;;;;17.35;11.23;;;;;;;2.56;100.00;99019.97;5084713;28;20072;-82
2022/12/05 03:12:56;;;;;;;18.45;11.68;;;;;;;2.61;100.00;99025.03;5080333;28;20043;-82
2022/12/05 03:15:46;;;;;;;17.58;12.00;;;;;;;2.57;100.00;99021.69;5086294;28;20043;-83
2022/12/05 03:18:38;;;;;;;17.60;11.98;;;;;;;2.64;100.00;99017.16;5065072;28;20048;-82
2022/12/05 03:21:50;;;;;;;22.45;14.07;;;;;;;2.59;100.00;99000.94;5063001;28;20040;-83
2022/12/05 03:24:39;;;;;;;18.33;12.45;;;;;;;2.62;100.00;99006.00;5080410;28;20044;-83
2022/12/05 03:27:45;;;;;;;17.25;12.30;;;;;;;2.61;100.00;99016.41;5069903;28;20032;-82
2022/12/05 03:30:34;;;;;;;18.40;12.15;;;;;;;2.64;100.00;99016.31;5042209;28;20505;-83
2022/12/05 03:33:22;;;;;;;16.10;11.07;;;;;;;2.56;100.00;99019.16;5069874;28;20246;-82
2022/12/05 03:36:22;;;;;;;16.52;10.70;;;;;;;2.48;100.00;99024.53;5057851;28;20553;-83
2022/12/05 03:39:28;;;;;;;16.65;11.07;;;;;;;2.50;100.00;99014.16;5071016;28;20047;-82
2022/12/05 03:42:19;;;;;;;17.63;11.23;;;;;;;2.53;100.00;99008.91;5054814;28;20051;-83
2022/12/05 03:45:11;;;;;;;17.20;11.52;;;;;;;2.45;100.00;99007.38;5070031;28;20032;-82
2022/12/05 03:48:13;;;;;;;17.95;11.35;;;;;;;2.41;100.00;99020.47;5080861;28;20040;-83
2022/12/05 03:51:00;;;;;;;17.27;11.23;;;;;;;2.43;100.00;99009.16;5068388;28;20045;-81
2022/12/05 03:54:15;;;;;;;18.23;11.07;;;;;;;2.46;100.00;99003.06;5060015;28;20036;-81
2022/12/05 03:57:27;;;;;;;16.80;11.48;;;;;;;2.42;100.00;99007.47;5060700;28;20101;-83
2022/12/05 04:00:22;;;;;;;18.48;11.65;;;;;;;2.48;100.00;99019.34;5082214;28;20032;-83
2022/12/05 04:03:23;;;;;;;17.92;11.55;;;;;;;2.51;100.00;99021.88;5083524;28;20040;-82
2022/12/05 04:06:38;;;;;;;19.05;11.50;;;;;;;2.44;100.00;99025.53;5058596;28;20054;-81
2022/12/05 04:09:28;;;;;;;15.32;10.68;;;;;;;2.38;100.00;99024.00;5002186;28;20069;-84
2022/12/05 04:12:21;;;;;;;17.35;10.57;;;;;;;2.38;100.00;99025.72;5001509;28;20049;-82
2022/12/05 04:15:13;;;;;;;16.75;10.50;;;;;;;2.45;100.00;99040.16;4992377;28;20083;-82
2022/12/05 04:17:59;;;;;;;15.05;10.00;;;;;;;2.40;100.00;99036.88;5000053;28;20053;-82
2022/12/05 04:25:31;;;;;;;17.23;10.88;;;;;;;2.45;100.00;99030.66;4998355;28;20042;-82
2022/12/05 04:27:17;;;;;;;16.20;10.43;;;;;;;2.42;100.00;99030.75;5000463;28;20196;-82
2022/12/05 04:30:13;;;;;;;18.48;11.45;;;;;;;2.44;100.00;99036.75;4998849;28;20115;-81
2022/12/05 04:32:58;;;;;;;18.13;11.13;;;;;;;2.44;100.00;99031.56;5000547;28;20058;-83
2022/12/05 04:35:50;;;;;;;17.45;11.80;;;;;;;2.38;100.00;99031.75;4992146;28;20045;-82
2022/12/05 04:39:07;;;;;;;18.50;11.35;;;;;;;2.41;100.00;99029.06;4985604;28;20061;-83
2022/12/05 04:41:59;;;;;;;19.35;11.93;;;;;;;2.39;100.00;99005.00;5002276;28;20050;-82
2022/12/05 04:44:53;;;;;;;19.85;12.27;;;;;;;2.40;100.00;99013.59;5002582;28;20051;-84
2022/12/05 04:47:44;;;;;;;18.77;12.65;;;;;;;2.47;100.00;99009.91;5079794;28;20048;-82
2022/12/05 04:50:32;;;;;;;22.25;13.52;;;;;;;2.44;100.00;99020.38;5069465;28;20044;-82
2022/12/05 04:53:18;;;;;;;22.10;12.20;;;;;;;2.42;100.00;99028.16;5067861;28;20113;-83
2022/12/05 04:56:03;;;;;;;19.60;11.55;;;;;;;2.42;100.00;99027.31;5067209;28;20043;-83
2022/12/05 04:58:48;;;;;;;18.30;11.85;;;;;;;2.42;100.00;99027.31;5080921;28;20036;-81
2022/12/05 05:01:40;;;;;;;19.55;12.13;;;;;;;2.43;100.00;99029.03;5077484;28;20044;-82
2022/12/05 05:04:32;;;;;;;19.52;12.20;;;;;;;2.46;100.00;99034.94;5071714;28;20048;-83
2022/12/05 05:07:18;;;;;;;20.55;12.43;;;;;;;2.49;100.00;99028.84;5079046;28;20044;-81
2022/12/05 05:10:03;;;;;;;20.00;12.88;;;;;;;2.50;100.00;99035.69;5080012;28;20040;-84
2022/12/05 05:12:47;;;;;;;18.00;11.90;;;;;;;2.55;100.00;99045.88;5079169;28;20040;-84
2022/12/05 05:15:32;;;;;;;19.77;12.98;;;;;;;2.44;100.00;99061.75;5074808;28;20032;-82
2022/12/05 05:18:17;;;;;;;21.42;13.68;;;;;;;2.45;100.00;99050.50;5065441;28;20045;-81
2022/12/05 05:21:03;;;;;;;21.75;13.38;;;;;;;2.46;100.00;99060.78;5042275;28;20036;-80
2022/12/05 05:23:48;;;;;;;20.55;13.40;;;;;;;2.48;100.00;99062.50;5066946;28;20044;-81
2022/12/05 05:26:35;;;;;;;20.52;13.07;;;;;;;2.52;100.00;99058.91;5066128;28;20040;-81
2022/12/05 05:29:19;;;;;;;21.23;14.05;;;;;;;2.49;100.00;99064.19;5076454;28;20109;-83
2022/12/05 05:32:04;;;;;;;22.85;14.65;;;;;;;2.53;100.00;99063.22;5085239;28;20050;-83
2022/12/05 05:34:48;;;;;;;22.48;14.38;;;;;;;2.48;100.00;99065.91;5069131;28;20063;-85
2022/12/05 05:37:33;;;;;;;23.10;14.63;;;;;;;2.94;100.00;99068.81;5053058;28;20071;-84
2022/12/05 05:40:18;;;;;;;23.52;14.18;;;;;;;2.75;100.00;99078.06;5055319;28;20487;-83
2022/12/05 05:43:03;;;;;;;21.23;14.50;;;;;;;2.52;100.00;99080.47;5070339;28;20051;-82
2022/12/05 05:45:48;;;;;;;21.23;14.63;;;;;;;2.51;100.00;99071.03;5068138;28;20048;-83
2022/12/05 05:48:33;;;;;;;22.88;14.13;;;;;;;2.54;100.00;99073.53;5072540;28;20055;-83
2022/12/05 05:51:19;;;;;;;19.23;13.43;;;;;;;2.68;100.00;99069.63;5072248;28;20061;-82
2022/12/05 05:54:04;;;;;;;20.38;13.75;;;;;;;2.69;100.00;99077.34;5084514;28;20064;-82
2022/12/05 05:56:49;;;;;;;23.02;13.93;;;;;;;2.70;100.00;99086.81;5084030;28;20130;-81
2022/12/05 05:59:40;;;;;;;20.13;12.13;;;;;;;2.62;100.00;99085.34;5087126;28;20071;-84
2022/12/05 06:02:24;;;;;;;21.45;14.15;;;;;;;2.73;100.00;99082.44;5057665;28;20040;-83
2022/12/05 06:05:09;;;;;;;22.58;12.48;;;;;;;2.57;100.00;99083.78;5082393;28;20044;-84
2022/12/05 06:07:54;;;;;;;21.02;13.18;;;;;;;2.44;100.00;99082.44;5073953;28;20036;-84
2022/12/05 06:10:39;;;;;;;24.38;14.23;;;;;;;2.46;100.00;99081.50;5088587;28;20104;-85
2022/12/05 06:13:24;;;;;;;27.08;15.50;;;;;;;2.38;100.00;99074.88;5083925;28;20434;-83
2022/12/05 06:16:11;;;;;;;23.67;14.13;;;;;;;2.41;100.00;99074.78;5078623;28;20032;-84
2022/12/05 06:18:57;;;;;;;21.92;14.10;;;;;;;2.51;100.00;99078.78;5074646;28;20081;-84
2022/12/05 06:21:41;;;;;;;22.17;14.63;;;;;;;2.53;100.00;99082.16;5071422;28;20919;-86
2022/12/05 06:24:26;;;;;;;20.23;13.65;;;;;;;2.54;100.00;99080.41;5088713;28;20125;-83
2022/12/05 06:27:11;;;;;;;23.30;14.32;;;;;;;2.49;100.00;99083.16;5085759;28;20040;-82
2022/12/05 06:29:56;;;;;;;26.17;16.30;;;;;;;2.52;100.00;99080.47;5082537;28;20059;-88
2022/12/05 06:32:44;;;;;;;21.45;14.93;;;;;;;2.48;100.00;99084.03;5051928;28;20550;-83
2022/12/05 06:35:29;;;;;;;23.70;16.10;;;;;;;2.53;100.00;99087.31;5062470;28;20135;-84
2022/12/05 06:38:13;;;;;;;22.30;15.32;;;;;;;2.45;100.00;99095.31;5079805;28;20436;-83
2022/12/05 06:40:58;;;;;;;27.08;17.13;;;;;;;2.48;100.00;99098.72;5050845;28;20048;-82
2022/12/05 06:43:44;;;;;;;22.35;16.27;;;;;;;2.48;100.00;99099.53;5069431;28;20055;-83
2022/12/05 06:46:29;;;;;;;26.52;16.75;;;;;;;2.49;100.00;99093.50;5078295;28;20040;-84
2022/12/05 06:49:15;;;;;;;23.45;15.57;;;;;;;2.64;100.00;99105.13;5065992;28;20040;-85
2022/12/05 06:52:02;;;;;;;22.98;15.57;;;;;;;2.56;100.00;99096.75;5066089;28;20498;-84
2022/12/05 06:54:47;;;;;;;25.88;16.30;;;;;;;2.44;100.00;99100.53;5069404;28;20050;-86
2022/12/05 06:57:33;;;;;;;26.33;15.68;;;;;;;2.42;100.00;99091.97;5070755;28;20123;-84
2022/12/05 07:03:28;;;;;;;25.42;15.85;;;;;;;2.46;100.00;99109.94;5059967;28;20045;-88
2022/12/05 07:06:15;;;;;;;25.40;16.60;;;;;;;2.48;100.00;99115.06;5040811;28;20115;-87
2022/12/05 07:09:01;;;;;;;28.90;17.05;;;;;;;2.36;100.00;99112.84;5063148;28;20105;-86
2022/12/05 07:11:49;;;;;;;26.33;16.58;;;;;;;2.31;100.00;99123.34;5043323;28;20503;-84
2022/12/05 07:14:36;;;;;;;27.23;16.88;;;;;;;2.39;100.00;99123.09;5056812;28;20051;-85
2022/12/05 07:17:22;;;;;;;29.58;17.92;;;;;;;2.44;100.00;99118.66;5062137;28;20584;-85
2022/12/05 07:20:11;;;;;;;28.40;16.77;;;;;;;2.52;100.00;99118.41;5030190;28;20048;-82
2022/12/05 07:22:58;;;;;;;26.50;16.48;;;;;;;2.55;100.00;99119.19;5052126;28;20066;-86
2022/12/05 07:25:42;;;;;;;29.48;17.50;;;;;;;2.56;100.00;99128.63;5058527;28;20402;-85
2022/12/05 07:28:28;;;;;;;28.92;17.65;;;;;;;2.42;100.00;99128.19;5067406;28;20043;-84
2022/12/05 07:31:16;;;;;;;27.55;16.55;;;;;;;2.52;100.00;99136.53;5065602;28;20052;-81
2022/12/05 07:34:04;;;;;;;29.58;17.90;;;;;;;2.32;100.00;99130.19;5079722;28;20096;-86
2022/12/05 07:36:54;;;;;;;29.90;18.20;;;;;;;2.43;100.00;99151.41;5083158;28;20052;-84
2022/12/05 07:39:40;;;;;;;30.02;17.40;;;;;;;2.48;100.00;99138.34;5082091;28;20109;-84
2022/12/05 07:42:26;;;;;;;27.58;17.42;;;;;;;2.56;100.00;99138.97;5091969;28;20040;-85
2022/12/05 07:45:43;;;;;;;29.00;17.33;;;;;;;2.69;100.00;99148.97;5061885;28;20036;-84
2022/12/05 07:48:34;;;;;;;30.20;16.48;;;;;;;2.60;100.00;99139.72;5013396;28;20044;-86
2022/12/05 07:51:19;;;;;;;28.58;16.60;;;;;;;2.50;100.00;99148.69;5014793;28;20604;-86
2022/12/05 07:54:05;;;;;;;27.35;17.45;;;;;;;2.48;100.00;99140.09;5033607;28;20041;-85
2022/12/05 08:07:09;;;;;;;31.50;17.65;;;;;;;2.48;100.00;99138.34;5026040;28;20109;-90
2022/12/05 08:09:55;;;;;;;28.25;16.75;;;;;;;2.56;100.00;99130.38;4998763;28;20462;-86
2022/12/05 08:12:40;;;;;;;29.60;16.75;;;;;;;2.44;100.00;99136.75;4957369;28;20068;-88
2022/12/05 08:15:25;;;;;;;29.63;17.05;;;;;;;2.53;100.00;99131.31;4992478;28;20405;-85
2022/12/05 08:18:10;;;;;;;27.33;15.30;;;;;;;2.49;100.00;99142.66;4993122;28;20049;-88
2022/12/05 08:21:01;;;;;;;30.05;16.40;;;;;;;2.59;100.00;99144.06;5028073;28;20055;-87
2022/12/05 08:23:46;;;;;;;28.63;15.75;;;;;;;2.62;100.00;99142.28;5016979;28;20119;-87
2022/12/05 08:26:32;;;;;;;30.52;17.05;;;;;;;2.55;100.00;99147.63;5028403;28;20047;-87
2022/12/05 08:29:20;;;;;;;29.10;16.23;;;;;;;2.52;100.00;99142.56;5035255;28;20049;-87
2022/12/05 08:32:05;;;;;;;27.73;16.10;;;;;;;2.53;100.00;99141.66;5026703;28;20132;-87
2022/12/05 08:34:50;;;;;;;29.23;16.95;;;;;;;2.39;100.00;99151.56;5042398;28;20048;-86
2022/12/05 08:37:35;;;;;;;28.45;16.67;;;;;;;2.53;100.00;99144.22;5008966;28;20048;-87
2022/12/05 08:40:27;;;;;;;25.15;15.75;;;;;;;2.45;100.00;99164.31;5017473;28;20123;-88
2022/12/05 08:43:16;;;;;;;28.25;15.10;;;;;;;2.53;100.00;99167.50;5027326;28;20033;-88
2022/12/05 08:46:32;;;;;;;26.58;15.02;;;;;;;2.58;100.00;99165.66;5043450;28;20040;-88
2022/12/05 08:49:18;;;;;;;26.73;16.15;;;;;;;2.63;100.00;99177.63;5043530;28;20048;-90
2022/12/05 08:52:04;;;;;;;28.30;16.48;;;;;;;2.53;100.00;99174.44;5045501;28;20051;-87
2022/12/05 08:54:48;;;;;;;27.25;15.50;;;;;;;2.54;100.00;99177.00;5052763;28;20120;-88
2022/12/05 08:57:33;;;;;;;28.77;16.80;;;;;;;2.52;100.00;99186.53;5069383;28;20151;-87
2022/12/05 09:00:18;;;;;;;29.50;15.93;;;;;;;2.61;100.00;99182.84;5069875;28;20128;-86
2022/12/05 09:03:05;;;;;;;26.67;14.65;;;;;;;2.72;100.00;99185.09;5070445;28;20503;-84
2022/12/05 09:05:50;;;;;;;28.05;16.20;;;;;;;2.70;100.00;99181.72;5060301;28;20045;-85
2022/12/05 09:08:36;;;;;;;29.08;16.63;;;;;;;2.62;100.00;99179.34;5086737;28;20036;-87
2022/12/05 09:11:24;;;;;;;32.47;17.65;;;;;;;2.62;100.00;99184.53;5066679;28;20037;-81
2022/12/05 09:14:09;;;;;;;31.35;17.02;;;;;;;3.00;100.00;99179.09;5086976;28;20032;-82
2022/12/05 09:16:54;;;;;;;31.20;15.75;;;;;;;3.17;100.00;99175.97;5086743;28;20491;-85
2022/12/05 09:19:39;;;;;;;28.52;16.38;;;;;;;3.07;100.00;99172.84;5090638;28;20047;-87
2022/12/05 09:22:23;;;;;;;33.00;16.33;;;;;;;3.07;100.00;99165.06;5081636;28;20044;-87
2022/12/05 09:25:08;;;;;;;27.80;15.32;;;;;;;2.94;100.00;99161.16;5083322;28;20052;-86
2022/12/05 09:27:53;;;;;;;31.38;16.05;;;;;;;2.90;100.00;99157.84;5060268;28;20048;-85
2022/12/05 09:30:38;;;;;;;29.60;16.33;;;;;;;2.84;100.00;99170.94;5092579;28;20052;-87
2022/12/05 09:33:24;;;;;;;29.15;16.15;;;;;;;2.74;100.00;99166.94;5065182;28;20562;-88
2022/12/05 09:36:15;;;;;;;30.38;16.08;;;;;;;2.84;100.00;99170.94;5060348;28;20162;-83
2022/12/05 09:39:04;;;;;;;28.85;15.32;;;;;;;2.79;100.00;99165.06;5083942;28;20051;-86
2022/12/05 09:42:04;;;;;;;30.70;17.13;;;;;;;2.79;100.00;99163.31;5048810;28;20459;-86
2022/12/05 09:45:14;;;;;;;27.80;15.57;;;;;;;2.87;100.00;99165.69;5050299;28;20060;-91
2022/12/05 09:48:52;;;;;;;28.42;15.70;;;;;;;2.70;100.00;99156.69;5050133;28;20044;-90
2022/12/05 09:53:07;;;;;;;30.17;15.50;;;;;;;2.81;100.00;99169.31;4983353;28;20046;-86
2022/12/05 09:56:57;;;;;;;28.35;16.20;;;;;;;2.88;100.00;99169.09;4997487;28;20053;-87
2022/12/05 09:59:59;;;;;;;30.40;16.13;;;;;;;2.96;100.00;99167.13;5008408;28;20103;-87
2022/12/05 10:02:56;;;;;;;31.23;17.10;;;;;;;2.91;100.00;99161.25;4985065;28;20050;-85
2022/12/05 10:05:50;;;;;;;31.73;16.55;;;;;;;2.79;100.00;99152.97;5028404;28;20046;-88
2022/12/05 10:09:18;;;;;;;33.25;17.45;;;;;;;2.85;100.00;99159.72;4996463;28;20510;-82
2022/12/05 10:12:23;;;;;;;30.25;17.13;;;;;;;2.82;100.00;99154.63;4991896;28;20053;-84
2022/12/05 10:15:30;;;;;;;29.73;16.73;;;;;;;2.90;100.00;99167.31;4993586;28;20061;-87
2022/12/05 10:18:43;;;;;;;33.00;17.63;;;;;;;2.97;100.00;99163.66;4984481;28;20069;-88
2022/12/05 10:21:32;;;;;;;32.70;17.20;;;;;;;2.92;100.00;99166.38;4959210;28;20046;-87
2022/12/05 10:24:31;;;;;;;30.58;16.67;;;;;;;3.01;100.00;99167.84;4962746;28;20050;-86
2022/12/05 10:27:20;;;;;;;35.35;17.27;;;;;;;2.90;100.00;99165.59;4970541;28;20466;-87
2022/12/05 10:30:11;;;;;;;34.15;18.00;;;;;;;2.88;100.00;99159.63;4990702;28;20050;-85
2022/12/05 10:32:59;;;;;;;29.00;16.10;;;;;;;2.99;100.00;99156.69;5007064;28;20050;-85
2022/12/05 10:35:44;;;;;;;32.33;16.85;;;;;;;3.04;100.00;99149.63;4992856;28;20081;-86
2022/12/05 10:38:30;;;;;;;34.50;17.80;;;;;;;2.93;100.00;99152.56;5004817;28;20144;-87
2022/12/05 10:41:22;;;;;;;32.22;16.23;;;;;;;3.00;100.00;99162.72;4975266;28;20076;-87
2022/12/05 10:44:15;;;;;;;33.97;17.45;;;;;;;2.76;100.00;99150.47;4992864;28;20155;-86
2022/12/05 10:47:00;;;;;;;32.95;18.05;;;;;;;2.83;100.00;99148.53;5043860;28;20101;-85
2022/12/05 10:49:46;;;;;;;37.20;18.98;;;;;;;2.78;100.00;99143.50;5091930;28;20070;-87
2022/12/05 10:52:34;;;;;;;35.10;19.17;;;;;;;2.85;100.00;99140.72;5063966;28;20102;-88
2022/12/05 10:55:27;;;;;;;33.33;18.05;;;;;;;2.71;100.00;99127.31;5075974;28;20071;-85
2022/12/05 10:58:46;;;;;;;31.33;16.48;;;;;;;2.90;100.00;99131.09;5042007;28;20056;-82
2022/12/05 11:02:32;;;;;;;33.95;18.05;;;;;;;2.82;100.00;99123.56;5010730;28;20061;-86
2022/12/05 11:05:27;;;;;;;31.02;17.00;;;;;;;2.85;100.00;99112.25;5021499;28;20056;-87
2022/12/05 11:08:25;;;;;;;33.90;17.55;;;;;;;2.90;100.00;99112.97;4982139;28;20124;-85
2022/12/05 11:11:12;;;;;;;37.13;19.08;;;;;;;2.75;100.00;99104.78;5027367;28;20057;-84
2022/12/05 11:13:58;;;;;;;35.85;18.23;;;;;;;2.83;100.00;99099.38;4994223;28;20072;-85
2022/12/05 11:16:54;;;;;;;34.83;18.33;;;;;;;2.92;100.00;99113.78;5023964;28;20049;-85
2022/12/05 11:19:39;;;;;;;33.25;18.13;;;;;;;2.91;100.00;99112.94;5025299;28;20508;-85
2022/12/05 11:22:35;;;;;;;33.38;17.08;;;;;;;2.83;100.00;99118.34;5013773;28;20502;-84
2022/12/05 11:25:28;;;;;;;33.38;17.38;;;;;;;2.91;100.00;99114.66;5002043;28;20097;-84
2022/12/05 11:28:18;;;;;;;31.33;16.60;;;;;;;2.92;100.00;99116.38;5015056;28;20160;-85
2022/12/05 11:31:21;;;;;;;34.38;18.65;;;;;;;2.86;100.00;99108.81;5014392;28;20080;-90
2022/12/05 11:34:21;;;;;;;33.95;17.50;;;;;;;3.02;100.00;99103.97;5097297;28;20091;-88
2022/12/05 11:37:19;;;;;;;39.38;16.52;;;;;;;2.97;100.00;99105.88;5052424;28;20048;-85
2022/12/05 11:40:19;;;;;;;32.45;16.70;;;;;;;3.04;100.00;99108.19;5055702;28;20056;-85
2022/12/05 11:43:43;;;;;;;30.35;16.13;;;;;;;3.06;100.00;99098.66;5057877;28;20045;-87
2022/12/05 11:46:59;;;;;;;;;;;;;;;;;;;;;
2022/12/05 11:50:08;;;;;;;33.42;16.17;;;;;;;3.36;100.00;99089.94;5084425;28;20063;-88
2022/12/05 11:53:25;;;;;;;36.28;17.55;;;;;;;3.13;100.00;99090.69;5053812;28;20563;-86
2022/12/05 11:56:38;;;;;;;35.88;17.40;;;;;;;3.13;100.00;99082.91;5053184;28;20040;-87
2022/12/05 11:59:25;;;;;;;;;;;;;;;3.15;100.00;99084.53;5056851;28;20225;-87
2022/12/05 12:02:28;;;;;;;34.33;17.88;;;;;;;3.19;100.00;99072.34;5092091;28;20004;-87
2022/12/05 12:05:22;;;;;;;35.85;17.42;;;;;;;3.18;100.00;99075.84;5074020;28;20087;-87
2022/12/05 12:08:18;;;;;;;35.08;18.55;;;;;;;3.13;100.00;99067.38;5079586;28;20052;-85
2022/12/05 12:11:19;;;;;;;33.67;17.70;;;;;;;3.14;100.00;99066.47;5050930;28;20045;-88
2022/12/05 12:14:57;;;;;;;36.00;19.42;;;;;;;3.11;100.00;99076.94;5057962;28;20098;-85
2022/12/05 12:18:04;;;;;;;40.88;19.27;;;;;;;3.07;100.00;99074.44;5008773;28;20200;-86
2022/12/05 12:21:15;;;;;;;39.58;20.10;;;;;;;3.11;100.00;99067.44;5013055;28;20136;-88
2022/12/05 12:24:09;;;;;;;38.90;21.10;;;;;;;3.24;100.00;99064.41;5007091;28;20046;-88
2022/12/05 12:26:56;;;;;;;42.28;20.88;;;;;;;3.21;100.00;99047.25;5002389;28;20428;-88
2022/12/05 12:29:51;;;;;;;46.95;20.92;;;;;;;3.11;100.00;99056.22;5000718;28;20076;-85
2022/12/05 12:33:06;;;;;;;49.10;22.05;;;;;;;3.21;100.00;99044.66;5025631;28;20049;-90
2022/12/05 12:36:33;;;;;;;45.22;21.65;;;;;;;3.08;100.00;99050.22;5006132;28;20045;-87
2022/12/05 12:39:43;;;;;;;44.63;22.13;;;;;;;3.01;100.00;99038.41;4935027;28;20643;-88
2022/12/05 12:43:06;;;;;;;39.55;20.85;;;;;;;3.00;100.00;99023.78;4963431;28;20075;-87
2022/12/05 12:46:47;;;;;;;46.33;22.05;;;;;;;3.04;100.00;99030.53;4964705;28;20047;-85
2022/12/05 12:49:51;;;;;;;46.70;21.20;;;;;;;3.04;100.00;99019.31;4910598;29;20140;-84
2022/12/05 12:53:00;;;;;;;41.42;21.45;;;;;;;3.09;100.00;99027.78;4983427;28;20636;-85
2022/12/05 12:56:07;;;;;;;42.33;21.88;;;;;;;3.13;100.00;99023.38;4942024;28;20521;-85
2022/12/05 12:59:17;;;;;;;44.85;22.08;;;;;;;3.13;100.00;99025.94;4981465;28;20049;-85
2022/12/05 13:02:17;;;;;;;41.22;21.17;;;;;;;3.13;100.00;99019.03;4963892;28;20035;-84
2022/12/05 13:05:56;;;;;;;45.42;20.95;;;;;;;3.13;100.00;99024.22;4982148;28;20050;-84
2022/12/05 13:09:05;;;;;;;45.63;21.13;;;;;;;3.19;100.00;99018.81;4917864;29;20134;-86
2022/12/05 13:11:54;;;;;;;42.97;21.25;;;;;;;3.14;100.00;99009.50;4908715;29;20083;-82
2022/12/05 13:14:49;;;;;;;40.58;20.92;;;;;;;3.18;100.00;99022.28;4894633;29;20052;-85
2022/12/05 13:17:37;;;;;;;45.47;22.17;;;;;;;3.28;100.00;99015.06;4970642;28;20053;-85
2022/12/05 13:20:27;;;;;;;43.05;21.05;;;;;;;3.31;100.00;99025.31;4972286;28;20081;-86
2022/12/05 13:23:18;;;;;;;38.55;20.27;;;;;;;3.40;100.00;99036.25;4974903;28;20389;-86
2022/12/05 13:26:29;;;;;;;38.30;21.17;;;;;;;3.36;100.00;99029.50;5009172;28;20042;-89
2022/12/05 13:29:26;;;;;;;45.05;22.73;;;;;;;3.27;100.00;99021.16;4961309;28;20075;-84
2022/12/05 13:32:32;;;;;;;42.58;21.88;;;;;;;3.39;100.00;99013.84;4949431;28;20545;-84
2022/12/05 13:45:06;;;;;;;35.53;19.95;;;;;;;3.69;100.00;99024.00;4999740;28;20053;-86